Time;durP1;ratioP1;P1;durP2;ratioP2;P2;SDS_P1;SDS_P2;PMS_P1;PMS_P2;Temp;Humidity;BMP_temperature;BMP_pressure;BME280_temperature;BME280_humidity;BME280_pressure;Samples;Min_cycle;Max_cycle;Signal;HPM_P1;HPM_P2
2024/01/14 00:01:46;;;;;;;10.10;9.10;;;2.40;83.00;;;;;;6257313;28;20234;-79
2024/01/14 00:04:49;;;;;;;9.40;8.60;;;2.40;83.20;;;;;;6252920;28;20225;-81
2024/01/14 00:07:53;;;;;;;9.13;8.33;;;2.40;83.10;;;;;;6263594;28;20241;-81
2024/01/14 00:10:58;;;;;;;9.40;8.50;;;2.40;83.20;;;;;;6247709;28;20324;-80
2024/01/14 00:14:01;;;;;;;9.53;8.53;;;2.40;83.30;;;;;;6246368;28;20245;-82
2024/01/14 00:17:04;;;;;;;9.83;8.93;;;2.40;83.30;;;;;;6250456;28;20230;-81
2024/01/14 00:20:12;;;;;;;8.20;7.43;;;2.40;83.40;;;;;;6253899;28;20245;-81
2024/01/14 00:23:15;;;;;;;10.30;9.30;;;2.50;83.20;;;;;;6247642;28;20248;-81
2024/01/14 00:26:24;;;;;;;8.97;8.03;;;2.50;83.20;;;;;;6254454;28;20268;-80
2024/01/14 00:29:27;;;;;;;10.73;9.23;;;2.40;83.40;;;;;;6220444;28;20246;-81
2024/01/14 00:32:31;;;;;;;9.77;8.77;;;2.40;83.50;;;;;;6225272;28;20249;-80
2024/01/14 00:35:34;;;;;;;9.43;8.53;;;2.40;83.60;;;;;;6230290;28;20246;-81
2024/01/14 00:38:37;;;;;;;10.90;9.43;;;2.40;83.60;;;;;;6229473;28;20229;-81
2024/01/14 00:41:42;;;;;;;10.73;9.37;;;2.40;83.50;;;;;;6220947;28;20726;-81
2024/01/14 00:44:46;;;;;;;10.10;8.53;;;2.50;83.50;;;;;;6236675;28;20234;-81
2024/01/14 00:47:49;;;;;;;9.93;8.93;;;2.50;83.50;;;;;;6232467;28;20277;-81
2024/01/14 00:50:52;;;;;;;9.43;8.53;;;2.50;83.40;;;;;;6228538;28;20223;-80
2024/01/14 00:53:56;;;;;;;9.17;8.47;;;2.50;83.50;;;;;;6224990;28;20239;-81
2024/01/14 00:57:00;;;;;;;8.73;7.90;;;2.50;83.60;;;;;;6225377;28;20237;-80
2024/01/14 01:00:15;;;;;;;10.50;8.07;;;2.50;83.10;;;;;;6221399;28;20373;-81
2024/01/14 01:03:20;;;;;;;9.00;7.73;;;2.50;82.90;;;;;;6225398;28;20235;-81
2024/01/14 01:06:23;;;;;;;9.10;8.30;;;2.50;82.90;;;;;;6222688;28;20234;-82
2024/01/14 01:09:27;;;;;;;8.57;7.50;;;2.50;82.90;;;;;;6237497;28;20318;-80
2024/01/14 01:12:31;;;;;;;7.87;7.37;;;2.50;82.80;;;;;;6236549;28;20234;-81
2024/01/14 01:15:34;;;;;;;8.47;7.60;;;2.50;82.70;;;;;;6246867;28;20715;-82
2024/01/14 01:18:38;;;;;;;7.50;6.90;;;2.50;82.50;;;;;;6256995;28;20305;-79
2024/01/14 01:21:41;;;;;;;6.33;6.03;;;2.40;82.60;;;;;;6249912;28;20277;-80
2024/01/14 01:24:44;;;;;;;6.97;6.47;;;2.40;82.60;;;;;;6237225;28;20238;-81
2024/01/14 01:27:49;;;;;;;6.77;6.03;;;2.30;82.40;;;;;;6244689;28;20868;-79
2024/01/14 01:30:52;;;;;;;6.43;5.90;;;2.30;82.30;;;;;;6249699;28;20264;-80
2024/01/14 01:33:56;;;;;;;7.23;6.77;;;2.30;82.20;;;;;;6249015;28;20234;-80
2024/01/14 01:36:59;;;;;;;6.37;5.90;;;2.20;82.60;;;;;;6246534;28;20348;-81
2024/01/14 01:40:03;;;;;;;6.47;5.97;;;2.20;82.40;;;;;;6256102;28;20231;-81
2024/01/14 01:43:07;;;;;;;7.17;6.47;;;2.20;82.60;;;;;;6237125;28;20246;-79
2024/01/14 01:46:11;;;;;;;6.20;5.87;;;2.10;82.80;;;;;;6251475;28;20315;-81
2024/01/14 01:49:14;;;;;;;6.00;5.70;;;2.10;82.80;;;;;;6254398;28;20244;-82
2024/01/14 01:52:19;;;;;;;7.00;6.47;;;2.10;82.80;;;;;;6264724;28;20234;-80
2024/01/14 01:55:22;;;;;;;6.50;6.00;;;2.00;83.40;;;;;;6284100;28;20234;-79
2024/01/14 01:58:26;;;;;;;7.20;6.70;;;2.00;83.60;;;;;;6293167;28;20806;-78
2024/01/14 02:01:32;;;;;;;6.57;6.17;;;2.00;83.50;;;;;;6258995;28;20326;-81
2024/01/14 02:04:36;;;;;;;7.10;6.70;;;2.00;83.30;;;;;;6257822;28;20249;-81
2024/01/14 02:07:40;;;;;;;7.53;6.93;;;2.00;83.30;;;;;;6256066;28;20321;-82
2024/01/14 02:10:43;;;;;;;7.93;6.63;;;2.00;83.20;;;;;;6258386;28;20313;-82
2024/01/14 02:13:48;;;;;;;9.80;6.97;;;1.90;83.30;;;;;;6261350;28;20634;-84
2024/01/14 02:16:53;;;;;;;6.80;6.20;;;1.90;83.60;;;;;;6238869;28;20244;-79
2024/01/14 02:19:56;;;;;;;6.80;6.30;;;2.00;83.70;;;;;;6238796;28;20230;-81
2024/01/14 02:23:01;;;;;;;7.23;6.53;;;2.00;83.50;;;;;;6251858;28;20616;-82
2024/01/14 02:26:06;;;;;;;6.83;6.33;;;2.00;83.40;;;;;;6252558;28;20238;-81
2024/01/14 02:29:11;;;;;;;8.37;6.17;;;2.10;83.20;;;;;;6256131;28;20734;-82
2024/01/14 02:32:14;;;;;;;11.63;6.87;;;2.00;83.00;;;;;;6257561;28;20242;-79
2024/01/14 02:35:18;;;;;;;6.57;6.07;;;2.10;82.90;;;;;;6248259;28;20237;-80
2024/01/14 02:38:23;;;;;;;6.77;5.83;;;2.00;83.00;;;;;;6264796;28;20238;-80
2024/01/14 02:41:29;;;;;;;8.63;5.73;;;2.00;82.90;;;;;;6250243;28;20730;-81
2024/01/14 02:44:32;;;;;;;10.43;5.67;;;2.00;82.80;;;;;;6267366;28;20340;-79
2024/01/14 02:47:35;;;;;;;5.57;5.10;;;2.00;82.70;;;;;;6266556;28;20265;-80
2024/01/14 02:50:38;;;;;;;5.53;5.10;;;2.00;82.60;;;;;;6249299;28;20727;-81
2024/01/14 02:53:42;;;;;;;6.23;5.30;;;2.00;82.50;;;;;;6253783;28;20605;-79
2024/01/14 02:56:47;;;;;;;5.27;4.87;;;2.00;82.50;;;;;;6280775;28;20245;-78
2024/01/14 02:59:51;;;;;;;8.60;5.43;;;2.10;82.00;;;;;;6254680;28;20362;-79
2024/01/14 03:02:54;;;;;;;6.17;5.20;;;2.00;82.00;;;;;;6257096;28;20432;-81
2024/01/14 03:05:57;;;;;;;8.03;5.70;;;2.00;82.00;;;;;;6254963;28;20319;-79
2024/01/14 03:09:00;;;;;;;4.90;4.53;;;2.10;81.80;;;;;;6243905;28;20243;-80
2024/01/14 03:12:05;;;;;;;6.13;4.63;;;2.00;81.90;;;;;;6241953;28;20386;-81
2024/01/14 03:15:10;;;;;;;8.73;5.40;;;2.10;81.80;;;;;;6248313;28;20274;-82
2024/01/14 03:18:16;;;;;;;9.43;4.97;;;2.10;81.40;;;;;;6245944;28;20796;-83
2024/01/14 03:21:20;;;;;;;5.20;4.80;;;2.00;81.10;;;;;;6257394;28;20230;-82
2024/01/14 03:24:23;;;;;;;5.63;4.83;;;2.00;81.10;;;;;;6249594;28;20304;-84
2024/01/14 03:27:28;;;;;;;5.03;4.67;;;1.90;81.50;;;;;;6258931;28;20234;-83
2024/01/14 03:30:31;;;;;;;4.80;4.50;;;1.90;81.20;;;;;;6266216;28;20352;-78
2024/01/14 03:33:34;;;;;;;6.97;5.07;;;1.90;81.10;;;;;;6266413;28;20340;-77
2024/01/14 03:36:38;;;;;;;7.97;4.53;;;2.00;81.00;;;;;;6263039;28;20250;-80
2024/01/14 03:39:42;;;;;;;4.70;4.30;;;2.00;80.80;;;;;;6254777;28;20257;-82
2024/01/14 03:42:47;;;;;;;4.67;4.37;;;2.00;80.70;;;;;;6249455;28;20258;-79
2024/01/14 03:45:50;;;;;;;8.53;4.53;;;1.90;80.80;;;;;;6242163;28;20246;-83
2024/01/14 03:48:53;;;;;;;6.20;4.63;;;1.90;80.70;;;;;;6253084;28;20226;-83
2024/01/14 03:51:57;;;;;;;4.77;4.33;;;1.90;80.70;;;;;;6250121;28;20762;-82
2024/01/14 03:55:00;;;;;;;5.33;4.50;;;1.90;80.50;;;;;;6272782;28;20226;-77
2024/01/14 03:58:05;;;;;;;5.60;3.93;;;1.70;80.60;;;;;;6276017;28;20252;-80
2024/01/14 04:01:16;;;;;;;4.63;3.90;;;1.70;80.80;;;;;;6270972;28;20261;-79
2024/01/14 04:04:20;;;;;;;9.07;4.20;;;1.60;80.90;;;;;;6259812;28;20709;-79
2024/01/14 04:07:23;;;;;;;6.20;4.20;;;1.60;81.00;;;;;;6258076;28;20689;-83
2024/01/14 04:10:26;;;;;;;10.53;4.40;;;1.70;80.80;;;;;;6248880;28;20295;-83
2024/01/14 04:13:31;;;;;;;6.27;4.33;;;1.80;80.60;;;;;;6265464;28;20261;-81
2024/01/14 04:16:37;;;;;;;7.67;4.17;;;1.80;80.50;;;;;;6272188;28;20257;-79
2024/01/14 04:19:41;;;;;;;4.50;4.20;;;1.80;80.40;;;;;;6262498;28;20292;-80
2024/01/14 04:22:44;;;;;;;7.40;3.93;;;1.80;80.30;;;;;;6244919;28;20239;-82
2024/01/14 04:25:47;;;;;;;5.53;4.40;;;1.90;80.40;;;;;;6259807;28;20237;-81
2024/01/14 04:28:53;;;;;;;9.57;5.07;;;1.90;80.20;;;;;;6267016;28;20302;-81
2024/01/14 04:31:56;;;;;;;8.60;4.63;;;1.90;80.00;;;;;;6252708;28;20263;-80
2024/01/14 04:34:59;;;;;;;12.60;4.67;;;1.90;79.80;;;;;;6286675;28;20242;-79
2024/01/14 04:38:02;;;;;;;13.63;4.53;;;2.00;79.60;;;;;;6268832;28;20257;-80
2024/01/14 04:41:05;;;;;;;7.80;4.73;;;2.00;79.50;;;;;;6253033;28;20359;-80
2024/01/14 04:44:10;;;;;;;12.10;4.70;;;2.00;79.60;;;;;;6267301;28;20781;-79
2024/01/14 04:47:13;;;;;;;7.07;4.37;;;2.00;79.70;;;;;;6256351;28;20239;-79
2024/01/14 04:50:16;;;;;;;6.87;4.23;;;2.00;79.50;;;;;;6260295;28;20291;-82
2024/01/14 04:53:19;;;;;;;13.57;5.90;;;2.00;79.40;;;;;;6258899;28;20233;-78
2024/01/14 04:56:23;;;;;;;11.47;5.23;;;2.00;79.20;;;;;;6258732;28;20776;-81
2024/01/14 04:59:27;;;;;;;6.93;4.27;;;2.00;79.20;;;;;;6235361;28;20237;-80
2024/01/14 05:02:31;;;;;;;10.93;4.87;;;2.00;79.30;;;;;;6224982;28;20243;-80
2024/01/14 05:05:34;;;;;;;7.33;4.57;;;2.00;79.20;;;;;;6232855;28;20237;-79
2024/01/14 05:08:39;;;;;;;12.47;5.10;;;2.00;79.20;;;;;;6250034;28;20304;-79
2024/01/14 05:11:42;;;;;;;5.37;4.63;;;2.00;79.20;;;;;;6266280;28;20230;-82
2024/01/14 05:14:47;;;;;;;11.63;4.70;;;2.10;79.30;;;;;;6250988;28;20742;-83
2024/01/14 05:17:50;;;;;;;8.43;5.20;;;2.10;79.40;;;;;;6268449;28;20234;-79
2024/01/14 05:20:53;;;;;;;8.67;4.40;;;2.10;79.40;;;;;;6257819;28;20234;-82
2024/01/14 05:23:57;;;;;;;6.27;5.07;;;2.10;79.40;;;;;;6253079;28;20740;-77
2024/01/14 05:27:00;;;;;;;9.63;4.73;;;2.20;79.20;;;;;;6249887;28;20235;-78
2024/01/14 05:30:06;;;;;;;7.83;4.60;;;2.10;79.10;;;;;;6260331;28;20226;-82
2024/01/14 05:33:09;;;;;;;7.97;4.40;;;2.20;79.10;;;;;;6255495;28;20245;-84
2024/01/14 05:36:12;;;;;;;10.27;4.70;;;2.10;79.30;;;;;;6250129;28;20234;-81
2024/01/14 05:39:15;;;;;;;9.33;4.63;;;2.10;79.50;;;;;;6256905;28;20721;-82
2024/01/14 05:42:19;;;;;;;8.10;4.20;;;2.00;79.50;;;;;;6252535;28;20234;-80
2024/01/14 05:45:25;;;;;;;9.80;4.97;;;2.00;79.60;;;;;;6254154;28;20337;-80
2024/01/14 05:48:28;;;;;;;9.03;4.67;;;2.10;79.40;;;;;;6252660;28;20708;-81
2024/01/14 05:51:32;;;;;;;13.07;5.10;;;2.00;79.70;;;;;;6258195;28;20234;-83
2024/01/14 05:54:35;;;;;;;6.60;4.83;;;2.10;79.80;;;;;;6258608;28;20246;-81
2024/01/14 05:57:40;;;;;;;7.80;4.50;;;2.00;80.00;;;;;;6257636;28;20254;-79
2024/01/14 06:00:44;;;;;;;10.77;5.10;;;2.10;79.80;;;;;;6273126;28;20222;-80
2024/01/14 06:03:48;;;;;;;5.57;5.10;;;2.10;79.90;;;;;;6270041;28;20352;-80
2024/01/14 06:06:51;;;;;;;9.73;5.07;;;2.10;80.10;;;;;;6275255;28;20230;-81
2024/01/14 06:09:54;;;;;;;6.47;4.70;;;2.10;80.30;;;;;;6259264;28;20238;-77
2024/01/14 06:12:57;;;;;;;6.40;4.60;;;2.10;80.40;;;;;;6259225;28;20336;-78
2024/01/14 06:16:02;;;;;;;8.23;4.70;;;2.00;80.40;;;;;;6256591;28;20697;-80
2024/01/14 06:19:06;;;;;;;5.50;4.30;;;2.00;80.60;;;;;;6253048;28;20241;-78
2024/01/14 06:22:09;;;;;;;9.33;5.20;;;2.00;80.80;;;;;;6257714;28;20230;-78
2024/01/14 06:25:12;;;;;;;9.07;4.63;;;1.90;80.90;;;;;;6249343;28;20229;-79
2024/01/14 06:28:15;;;;;;;5.57;4.50;;;1.90;81.10;;;;;;6254913;28;20230;-77
2024/01/14 06:31:20;;;;;;;8.73;4.47;;;1.80;81.50;;;;;;6254513;28;20234;-76
2024/01/14 06:34:23;;;;;;;7.50;4.63;;;2.00;80.70;;;;;;6252504;28;20242;-75
2024/01/14 06:37:27;;;;;;;6.53;4.53;;;2.00;80.50;;;;;;6247731;28;20299;-77
2024/01/14 06:40:30;;;;;;;7.53;5.90;;;1.90;80.50;;;;;;6254844;28;20237;-76
2024/01/14 06:43:42;;;;;;;6.63;4.27;;;1.90;80.40;;;;;;6253918;28;20238;-75
2024/01/14 06:46:48;;;;;;;11.23;5.33;;;1.90;80.30;;;;;;6252218;28;20244;-76
2024/01/14 06:49:52;;;;;;;9.10;4.27;;;1.90;80.30;;;;;;6252468;28;20266;-74
2024/01/14 06:53:09;;;;;;;8.50;4.40;;;1.90;80.00;;;;;;6250330;28;20694;-75
2024/01/14 06:56:16;;;;;;;6.53;4.13;;;1.90;79.80;;;;;;6258303;28;20230;-76
2024/01/14 06:59:20;;;;;;;6.20;4.47;;;1.90;79.90;;;;;;6261777;28;20368;-77
2024/01/14 07:02:25;;;;;;;3.97;3.80;;;1.90;80.00;;;;;;6256941;28;20258;-76
2024/01/14 07:05:29;;;;;;;12.80;4.30;;;2.00;79.90;;;;;;6261983;28;20245;-75
2024/01/14 07:08:32;;;;;;;7.03;4.23;;;2.00;79.70;;;;;;6254556;28;20313;-75
2024/01/14 07:11:35;;;;;;;8.53;4.07;;;2.00;79.70;;;;;;6253284;28;20239;-75
2024/01/14 07:14:39;;;;;;;6.03;4.27;;;1.90;80.00;;;;;;6267867;28;20244;-78
2024/01/14 07:17:43;;;;;;;11.67;4.47;;;1.90;80.10;;;;;;6251295;28;20357;-76
2024/01/14 07:21:01;;;;;;;9.93;4.60;;;1.90;80.10;;;;;;6254908;28;20334;-77
2024/01/14 07:24:05;;;;;;;4.93;4.07;;;1.90;80.20;;;;;;6251571;28;20239;-78
2024/01/14 07:27:08;;;;;;;4.37;3.93;;;1.90;80.50;;;;;;6254450;28;20245;-77
2024/01/14 07:30:12;;;;;;;8.43;4.60;;;1.90;80.40;;;;;;6255786;28;20245;-77
2024/01/14 07:33:16;;;;;;;9.47;4.47;;;1.90;80.40;;;;;;6260224;28;20832;-75
2024/01/14 07:36:20;;;;;;;4.63;4.13;;;2.00;80.10;;;;;;6250569;28;20226;-75
2024/01/14 07:39:23;;;;;;;7.77;4.17;;;1.90;80.10;;;;;;6255776;28;20242;-77
2024/01/14 07:42:26;;;;;;;10.30;4.83;;;2.00;80.00;;;;;;6262798;28;20251;-78
2024/01/14 07:45:29;;;;;;;5.63;4.33;;;1.90;79.70;;;;;;6255145;28;20278;-74
2024/01/14 07:48:34;;;;;;;8.63;4.70;;;1.90;79.80;;;;;;6251048;28;20826;-76
2024/01/14 07:51:39;;;;;;;4.73;4.33;;;2.00;79.70;;;;;;6255922;28;20403;-77
2024/01/14 07:54:42;;;;;;;8.53;4.33;;;2.00;79.40;;;;;;6248356;28;20238;-78
2024/01/14 07:57:45;;;;;;;8.80;4.23;;;2.00;79.30;;;;;;6263726;28;20230;-78
2024/01/14 08:00:48;;;;;;;10.10;4.90;;;2.00;79.10;;;;;;6262750;28;20689;-77
2024/01/14 08:04:05;;;;;;;4.80;4.40;;;2.00;79.10;;;;;;6260391;28;20560;-79
2024/01/14 08:07:09;;;;;;;5.90;4.13;;;2.00;79.20;;;;;;6257220;28;20242;-76
2024/01/14 08:10:12;;;;;;;6.30;4.63;;;2.00;79.30;;;;;;6242993;28;20341;-76
2024/01/14 08:13:15;;;;;;;6.00;4.20;;;2.10;79.20;;;;;;6254703;28;20232;-78
2024/01/14 08:16:18;;;;;;;6.77;4.73;;;2.10;79.00;;;;;;6267335;28;20253;-78
2024/01/14 08:19:23;;;;;;;6.57;4.40;;;2.10;79.00;;;;;;6259546;28;20234;-78
2024/01/14 08:22:26;;;;;;;4.27;3.87;;;2.20;78.70;;;;;;6262428;28;20604;-76
2024/01/14 08:25:30;;;;;;;6.83;4.23;;;2.10;78.90;;;;;;6260411;28;20230;-77
2024/01/14 08:28:36;;;;;;;4.43;3.93;;;2.10;79.00;;;;;;6252429;28;20234;-77
2024/01/14 08:31:39;;;;;;;5.13;4.10;;;2.20;78.70;;;;;;6255696;28;20250;-76
2024/01/14 08:34:43;;;;;;;8.63;4.13;;;2.30;78.10;;;;;;6252018;28;20369;-79
2024/01/14 08:37:47;;;;;;;6.23;4.30;;;2.30;78.30;;;;;;6261238;28;20253;-77
2024/01/14 08:40:53;;;;;;;4.53;4.13;;;2.20;78.40;;;;;;6256529;28;20242;-76
2024/01/14 08:43:59;;;;;;;3.97;3.57;;;2.20;78.50;;;;;;6259176;28;20892;-77
2024/01/14 08:47:02;;;;;;;4.40;4.00;;;2.20;78.40;;;;;;6258554;28;20242;-77
2024/01/14 08:50:10;;;;;;;4.50;4.20;;;2.20;78.60;;;;;;6265902;28;20241;-76
2024/01/14 08:53:14;;;;;;;4.93;4.47;;;2.20;78.40;;;;;;6255430;28;20226;-77
2024/01/14 08:56:18;;;;;;;4.10;3.83;;;2.30;78.50;;;;;;6253844;28;20245;-79
2024/01/14 08:59:22;;;;;;;6.77;4.10;;;2.40;77.90;;;;;;6248431;28;20346;-77
2024/01/14 09:02:26;;;;;;;4.37;4.00;;;2.40;77.80;;;;;;6260135;28;20722;-77
2024/01/14 09:05:30;;;;;;;6.73;4.47;;;2.50;77.50;;;;;;6253221;28;20234;-77
2024/01/14 09:08:33;;;;;;;4.27;3.83;;;2.50;77.30;;;;;;6248023;28;20231;-75
2024/01/14 09:11:37;;;;;;;3.83;3.53;;;2.50;77.60;;;;;;6253754;28;20319;-78
2024/01/14 09:14:40;;;;;;;4.10;3.73;;;2.50;77.60;;;;;;6256087;28;21710;-78
2024/01/14 09:17:43;;;;;;;4.30;3.97;;;2.50;77.30;;;;;;6252503;28;20780;-78
2024/01/14 09:20:48;;;;;;;4.43;3.87;;;2.60;77.00;;;;;;6251075;28;20235;-76
2024/01/14 09:23:51;;;;;;;4.43;4.13;;;2.60;77.10;;;;;;6268804;28;20241;-78
2024/01/14 09:26:54;;;;;;;5.33;3.80;;;2.60;77.30;;;;;;6269070;28;20264;-74
2024/01/14 09:29:58;;;;;;;7.63;4.20;;;2.70;77.20;;;;;;6263897;28;20238;-78
2024/01/14 09:33:01;;;;;;;6.83;4.23;;;2.60;77.50;;;;;;6264065;28;20246;-77
2024/01/14 09:36:09;;;;;;;4.13;3.80;;;2.60;77.40;;;;;;6247796;28;20242;-77
2024/01/14 09:39:13;;;;;;;6.93;4.60;;;2.50;77.80;;;;;;6260124;28;20314;-75
2024/01/14 09:42:23;;;;;;;7.07;3.87;;;2.70;77.60;;;;;;6246898;28;20250;-77
2024/01/14 09:45:27;;;;;;;5.23;3.87;;;2.70;77.70;;;;;;6260063;28;20237;-78
2024/01/14 09:48:40;;;;;;;4.93;3.90;;;2.70;77.60;;;;;;6255902;28;20908;-78
2024/01/14 09:51:49;;;;;;;6.77;4.50;;;2.70;77.60;;;;;;6261786;28;20237;-76
2024/01/14 09:54:53;;;;;;;6.43;4.87;;;2.70;77.40;;;;;;6255744;28;20257;-77
2024/01/14 09:57:59;;;;;;;7.57;4.47;;;2.70;77.50;;;;;;6251314;28;20241;-76
2024/01/14 10:01:05;;;;;;;7.60;4.33;;;2.70;77.60;;;;;;6249880;28;20258;-76
2024/01/14 10:04:08;;;;;;;5.97;3.60;;;2.70;77.50;;;;;;6263847;28;20764;-76
2024/01/14 10:07:13;;;;;;;6.80;4.33;;;2.80;77.30;;;;;;6252064;28;20662;-78
2024/01/14 10:10:17;;;;;;;6.10;4.20;;;2.80;77.50;;;;;;6234458;28;20327;-79
2024/01/14 10:13:21;;;;;;;7.07;4.27;;;2.70;77.70;;;;;;6232955;28;20312;-75
2024/01/14 10:16:25;;;;;;;5.47;4.13;;;2.80;77.70;;;;;;6230540;28;20272;-75
2024/01/14 10:19:53;;;;;;;9.37;4.13;;;2.80;77.80;;;;;;6243101;28;20369;-76
2024/01/14 10:22:58;;;;;;;5.60;4.07;;;2.80;77.30;;;;;;6265834;28;20242;-76
2024/01/14 10:26:02;;;;;;;6.03;4.60;;;2.80;77.20;;;;;;6269308;28;20629;-77
2024/01/14 10:29:05;;;;;;;4.30;4.00;;;2.80;77.70;;;;;;6262672;28;20375;-77
2024/01/14 10:32:09;;;;;;;4.57;3.93;;;2.90;78.00;;;;;;6259626;28;20643;-77
2024/01/14 10:35:13;;;;;;;5.80;4.13;;;3.00;77.80;;;;;;6251484;28;20251;-76
2024/01/14 10:38:21;;;;;;;5.87;4.00;;;3.10;77.40;;;;;;6254799;28;20252;-76
2024/01/14 10:41:25;;;;;;;4.33;4.03;;;3.20;77.00;;;;;;6260845;28;20234;-78
2024/01/14 10:44:28;;;;;;;4.80;4.07;;;3.30;76.20;;;;;;6262138;28;20759;-76
2024/01/14 10:47:35;;;;;;;4.50;4.10;;;3.20;76.40;;;;;;6263547;28;20250;-78
2024/01/14 10:50:39;;;;;;;9.37;4.43;;;3.10;76.40;;;;;;6259334;28;20720;-78
2024/01/14 10:54:04;;;;;;;4.47;4.13;;;3.10;76.90;;;;;;6258287;28;20734;-77
2024/01/14 10:57:19;;;;;;;3.93;3.67;;;3.00;77.90;;;;;;6259298;28;20237;-77
2024/01/14 11:00:22;;;;;;;5.83;4.57;;;3.00;77.50;;;;;;6259467;28;20249;-77
2024/01/14 11:03:27;;;;;;;6.07;4.10;;;3.10;76.80;;;;;;6262210;28;20309;-78
2024/01/14 11:06:31;;;;;;;4.33;3.90;;;3.10;76.90;;;;;;6250198;28;20234;-78
2024/01/14 11:09:36;;;;;;;6.83;4.30;;;3.30;77.00;;;;;;6258898;28;20231;-75
2024/01/14 11:12:45;;;;;;;5.73;4.67;;;3.30;76.40;;;;;;6256837;28;20238;-76
2024/01/14 11:15:56;;;;;;;5.53;4.17;;;3.30;76.90;;;;;;6249862;28;20371;-77
2024/01/14 11:19:03;;;;;;;8.47;4.43;;;3.50;75.70;;;;;;6249383;28;20234;-77
2024/01/14 11:22:21;;;;;;;6.73;4.33;;;3.50;75.60;;;;;;6262184;28;20407;-76
2024/01/14 11:25:44;;;;;;;7.97;5.60;;;3.30;75.50;;;;;;6254432;28;20291;-77
2024/01/14 11:28:47;;;;;;;8.33;5.43;;;3.30;75.90;;;;;;6259083;28;20730;-76
2024/01/14 11:32:08;;;;;;;4.70;3.83;;;3.30;75.60;;;;;;6251748;28;20818;-77
2024/01/14 11:35:11;;;;;;;4.87;4.57;;;3.40;75.50;;;;;;6257428;28;20603;-76
2024/01/14 11:38:32;;;;;;;4.90;4.13;;;3.40;75.60;;;;;;6258369;28;20230;-77
2024/01/14 11:41:37;;;;;;;4.80;4.30;;;3.40;75.30;;;;;;6260826;28;20233;-78
2024/01/14 11:44:40;;;;;;;4.70;4.40;;;3.30;75.40;;;;;;6265173;28;20296;-76
2024/01/14 11:47:46;;;;;;;4.70;4.40;;;3.30;75.70;;;;;;6262783;28;20884;-76
2024/01/14 11:50:51;;;;;;;4.97;4.10;;;3.30;75.70;;;;;;6236521;28;20280;-77
2024/01/14 11:53:56;;;;;;;5.63;4.30;;;3.30;75.60;;;;;;6266281;28;20240;-76
2024/01/14 11:57:01;;;;;;;4.30;3.90;;;3.10;75.80;;;;;;6265550;28;20230;-77
2024/01/14 12:00:07;;;;;;;5.53;4.20;;;3.10;75.80;;;;;;6249672;28;20237;-78
2024/01/14 12:03:12;;;;;;;4.10;3.90;;;3.20;75.70;;;;;;6261560;28;20362;-78
2024/01/14 12:06:15;;;;;;;5.03;4.30;;;3.20;75.50;;;;;;6250720;28;20245;-78
2024/01/14 12:09:18;;;;;;;9.47;5.50;;;3.20;75.60;;;;;;6252892;28;20237;-77
2024/01/14 12:12:26;;;;;;;4.87;4.17;;;3.20;75.60;;;;;;6262106;28;20254;-77
2024/01/14 12:15:29;;;;;;;4.57;4.17;;;3.30;75.20;;;;;;6257247;28;20869;-77
2024/01/14 12:18:40;;;;;;;5.80;4.40;;;3.20;75.30;;;;;;6247705;28;20237;-78
2024/01/14 12:21:48;;;;;;;5.00;4.47;;;3.30;75.30;;;;;;6260638;28;20831;-75
2024/01/14 12:24:52;;;;;;;4.60;4.10;;;3.30;75.20;;;;;;6261611;28;20238;-75
2024/01/14 12:27:56;;;;;;;5.23;4.77;;;3.30;74.70;;;;;;6258754;28;20242;-77
2024/01/14 12:31:00;;;;;;;4.37;3.97;;;3.30;74.80;;;;;;6264195;28;20742;-78
2024/01/14 12:34:05;;;;;;;4.90;4.50;;;3.30;74.90;;;;;;6254047;28;20376;-76
2024/01/14 12:37:10;;;;;;;5.93;4.27;;;3.30;74.70;;;;;;6247824;28;20385;-77
2024/01/14 12:40:16;;;;;;;5.87;5.03;;;3.20;75.10;;;;;;6259064;28;20234;-77
2024/01/14 12:43:20;;;;;;;4.27;3.97;;;3.20;75.00;;;;;;6260462;28;20970;-76
2024/01/14 12:46:23;;;;;;;6.40;4.40;;;3.10;75.20;;;;;;6247212;28;20764;-76
2024/01/14 12:49:32;;;;;;;5.40;4.87;;;3.10;75.10;;;;;;6254299;28;20222;-75
2024/01/14 12:52:36;;;;;;;6.33;4.30;;;3.10;75.20;;;;;;6260649;28;20241;-75
2024/01/14 12:55:39;;;;;;;4.67;4.00;;;3.10;75.00;;;;;;6251576;28;20234;-75
2024/01/14 12:58:44;;;;;;;7.13;3.60;;;3.10;74.60;;;;;;6254109;28;20273;-77
2024/01/14 13:01:47;;;;;;;4.30;3.90;;;3.10;74.40;;;;;;6255703;28;20245;-76
2024/01/14 13:04:50;;;;;;;4.23;3.93;;;3.10;74.50;;;;;;6258927;28;20269;-76
2024/01/14 13:07:53;;;;;;;5.03;4.00;;;3.10;74.90;;;;;;6252774;28;20236;-76
2024/01/14 13:10:56;;;;;;;4.73;4.47;;;3.00;75.10;;;;;;6261153;28;20327;-74
2024/01/14 13:14:04;;;;;;;5.37;4.87;;;3.00;75.30;;;;;;6263062;28;20240;-78
2024/01/14 13:17:07;;;;;;;4.63;4.23;;;2.90;75.70;;;;;;6265566;28;20802;-75
2024/01/14 13:20:12;;;;;;;8.60;4.93;;;2.90;76.20;;;;;;6238215;28;20231;-77
2024/01/14 13:23:15;;;;;;;4.83;4.40;;;2.90;76.10;;;;;;6259519;28;20248;-78
2024/01/14 13:26:18;;;;;;;4.93;4.53;;;2.80;76.20;;;;;;6255994;28;20328;-77
2024/01/14 13:29:22;;;;;;;7.30;4.20;;;2.90;75.90;;;;;;6257061;28;20319;-76
2024/01/14 13:32:26;;;;;;;4.80;4.37;;;2.90;75.90;;;;;;6263409;28;20319;-75
2024/01/14 13:35:29;;;;;;;8.23;4.90;;;2.90;76.00;;;;;;6248763;28;20243;-75
2024/01/14 13:38:32;;;;;;;9.50;4.50;;;2.90;76.10;;;;;;6259786;28;20824;-77
2024/01/14 13:41:35;;;;;;;7.90;4.33;;;2.90;76.00;;;;;;6263155;28;20230;-77
2024/01/14 13:44:40;;;;;;;4.40;4.00;;;2.90;75.70;;;;;;6259300;28;20733;-78
2024/01/14 13:47:43;;;;;;;8.20;5.10;;;3.00;75.50;;;;;;6255889;28;20242;-75
2024/01/14 13:50:46;;;;;;;4.70;4.30;;;3.00;75.20;;;;;;6262465;28;20241;-79
2024/01/14 13:53:49;;;;;;;4.23;3.83;;;3.00;75.10;;;;;;6263631;28;20234;-76
2024/01/14 13:57:10;;;;;;;6.83;4.03;;;3.10;75.00;;;;;;6263067;28;20689;-77
2024/01/14 14:00:15;;;;;;;7.50;4.53;;;3.10;74.50;;;;;;6268502;28;20242;-75
2024/01/14 14:03:18;;;;;;;4.07;3.80;;;3.10;74.40;;;;;;6266030;28;20268;-76
2024/01/14 14:06:21;;;;;;;3.93;3.50;;;3.10;74.20;;;;;;6266248;28;20241;-75
2024/01/14 14:09:24;;;;;;;4.40;3.97;;;3.10;74.00;;;;;;6254269;28;21515;-75
2024/01/14 14:12:28;;;;;;;4.90;4.10;;;3.20;74.00;;;;;;6262875;28;20386;-74
2024/01/14 14:15:32;;;;;;;4.40;4.00;;;3.20;73.90;;;;;;6267005;28;20252;-76
2024/01/14 14:18:35;;;;;;;5.93;4.20;;;3.30;73.50;;;;;;6262242;28;20233;-76
2024/01/14 14:21:39;;;;;;;5.27;3.77;;;3.20;73.40;;;;;;6265774;28;20299;-76
2024/01/14 14:24:45;;;;;;;4.07;3.80;;;3.30;73.20;;;;;;6268063;28;20265;-78
2024/01/14 14:27:49;;;;;;;5.93;4.17;;;3.10;73.40;;;;;;6265173;28;20624;-76
2024/01/14 14:30:53;;;;;;;4.13;3.73;;;3.10;73.20;;;;;;6269219;28;20256;-77
2024/01/14 14:33:59;;;;;;;4.23;3.97;;;3.10;73.30;;;;;;6261410;28;20248;-80
2024/01/14 14:37:02;;;;;;;4.07;3.60;;;3.10;73.60;;;;;;6269313;28;20352;-77
2024/01/14 14:40:07;;;;;;;5.63;4.27;;;3.10;73.30;;;;;;6269211;28;20248;-75
2024/01/14 14:43:10;;;;;;;10.77;4.00;;;3.10;73.70;;;;;;6256092;28;20230;-76
2024/01/14 14:46:15;;;;;;;6.73;3.87;;;3.10;73.50;;;;;;6262110;28;20276;-76
2024/01/14 14:49:18;;;;;;;7.27;4.30;;;3.10;73.40;;;;;;6258721;28;20262;-77
2024/01/14 14:52:22;;;;;;;6.80;4.23;;;3.10;73.20;;;;;;6268724;28;20386;-76
2024/01/14 14:55:25;;;;;;;7.43;4.30;;;3.10;73.50;;;;;;6266827;28;20239;-76
2024/01/14 14:58:28;;;;;;;7.57;4.17;;;3.10;73.60;;;;;;6269696;28;20371;-75
2024/01/14 15:01:33;;;;;;;5.37;4.37;;;3.10;73.30;;;;;;6267685;28;20265;-74
2024/01/14 15:04:46;;;;;;;4.67;3.90;;;3.10;73.60;;;;;;6268477;28;20317;-78
2024/01/14 15:07:52;;;;;;;5.93;4.10;;;3.10;73.60;;;;;;6271844;28;20245;-75
2024/01/14 15:10:56;;;;;;;4.10;3.80;;;3.10;73.60;;;;;;6261359;28;21106;-75
2024/01/14 15:13:59;;;;;;;8.60;4.47;;;3.00;73.80;;;;;;6265106;28;20238;-76
2024/01/14 15:17:05;;;;;;;4.37;4.00;;;3.00;74.00;;;;;;6267038;28;20769;-77
2024/01/14 15:20:09;;;;;;;7.53;4.67;;;3.00;74.20;;;;;;6267479;28;20272;-78
2024/01/14 15:23:13;;;;;;;6.87;4.43;;;3.00;74.10;;;;;;6266164;28;20609;-75
2024/01/14 15:26:16;;;;;;;4.83;4.27;;;3.10;74.30;;;;;;6267381;28;20245;-75
2024/01/14 15:29:19;;;;;;;6.10;4.40;;;3.00;74.60;;;;;;6267305;28;20272;-76
2024/01/14 15:32:24;;;;;;;5.13;4.63;;;2.90;74.90;;;;;;6266572;28;20819;-77
2024/01/14 15:35:27;;;;;;;7.00;5.00;;;2.80;75.30;;;;;;6269685;28;20802;-78
2024/01/14 15:38:31;;;;;;;5.70;4.80;;;2.90;75.40;;;;;;6266498;28;20312;-75
2024/01/14 15:41:36;;;;;;;5.43;4.90;;;2.80;75.60;;;;;;6269171;28;20317;-78
2024/01/14 15:44:39;;;;;;;5.33;4.90;;;2.80;75.70;;;;;;6269003;28;20729;-75
2024/01/14 15:47:44;;;;;;;8.90;5.33;;;2.80;75.90;;;;;;6266428;28;20501;-75
2024/01/14 15:50:47;;;;;;;7.67;5.90;;;2.80;76.20;;;;;;6269093;28;20233;-73
2024/01/14 15:54:05;;;;;;;5.90;5.57;;;2.80;76.50;;;;;;6270117;28;20265;-74
2024/01/14 15:57:08;;;;;;;6.03;5.63;;;2.70;76.90;;;;;;6268234;28;20241;-76
2024/01/14 16:00:14;;;;;;;6.77;6.27;;;2.70;77.20;;;;;;6257179;28;20237;-74
2024/01/14 16:03:18;;;;;;;5.97;5.60;;;2.50;78.10;;;;;;6267426;28;20477;-77
2024/01/14 16:06:24;;;;;;;6.67;6.23;;;2.40;78.90;;;;;;6267402;28;20250;-75
2024/01/14 16:09:27;;;;;;;7.10;6.60;;;2.30;79.30;;;;;;6266101;28;20249;-77
2024/01/14 16:12:33;;;;;;;8.70;7.30;;;2.30;79.70;;;;;;6266002;28;20241;-75